Legend Of The Seas — C6SL5 — position and weather

sailwx.info

Track history (hours):
 
Tides and Currents Weather Stations Pressure Air Temp Water Temp Dewpoint Dewpoint Depression Visibility Wind Speed Wind Dir Waves Ship Positions

Legend Of The Seas

Operator: Royal Caribbean Cruises Ltd

Last reported at 2017-Aug-16 18:39 UTC. Time now 2017-Aug-16 19:18 UTC.
Position N 43°01' E 006°59'.

Type: Passenger vessel. MMSI: 311378000.

Date/timePositionNaut miles runAvg speedWind from/ knotsBaromVisibWave heightAir tempDewpointWater temp
2017-Aug-16 18:39N 43°01' E 006°59'321.1
2017-Aug-16 18:30N 43°03' E 007°02'1020.9
2017-Aug-16 18:00N 43°10' E 007°12'1121.1
2017-Aug-16 17:30N 43°18' E 007°22'1121.0
2017-Aug-16 17:00N 43°25' E 007°32'1121.2
2017-Aug-16 16:31N 43°34' E 007°41'1021.0
2017-Aug-16 16:00N 43°44' E 007°46'510.3
2017-Aug-16 15:30N 43°48' E 007°48'0 0.4
2017-Aug-16 15:00N 43°49' E 007°48'0 0.1
2017-Aug-16 14:30N 43°49' E 007°48'0 0.0
2017-Aug-16 14:00N 43°49' E 007°48'0 0.0
2017-Aug-16 13:15N 43°49' E 007°48'0 0.1
2017-Aug-16 12:57N 43°49' E 007°48'0 0.0
2017-Aug-16 12:27N 43°49' E 007°48'0 0.0
2017-Aug-16 12:00N 43°49' E 007°48'0 0.0
2017-Aug-16 11:30N 43°49' E 007°48'0 0.0
2017-Aug-16 11:00N 43°49' E 007°48'0 0.0
2017-Aug-16 10:15N 43°49' E 007°48'0 0.0
2017-Aug-16 08:42N 43°49' E 007°48'0 0.0
2017-Aug-16 08:27N 43°49' E 007°48'0 0.0
2017-Aug-16 07:33N 43°49' E 007°48'0 0.0
2017-Aug-16 07:21N 43°49' E 007°48'0 0.0
2017-Aug-16 06:57N 43°49' E 007°48'0 0.0
2017-Aug-16 06:27N 43°49' E 007°48'0 0.0
2017-Aug-16 06:00N 43°49' E 007°48'0 0.0
2017-Aug-16 05:27N 43°49' E 007°48'0 0.0
2017-Aug-16 04:45N 43°49' E 007°48'0 0.1
2017-Aug-16 04:30N 43°49' E 007°48'3 5.8
2017-Aug-16 04:00N 43°46' E 007°47'712.6
2017-Aug-16 03:28N 43°39' E 007°45'613.6
2017-Aug-16 03:00N 43°33' E 007°42'713.6
2017-Aug-16 02:30N 43°28' E 007°36'713.9
2017-Aug-16 02:00N 43°23' E 007°29'713.9
2017-Aug-16 01:31N 43°18' E 007°23'714.7
2017-Aug-16 01:01N 43°13' E 007°15'714.9
2017-Aug-16 00:31N 43°08' E 007°08'714.5
2017-Aug-16 00:01N 43°03' E 007°01'714.2
2017-Aug-15 23:31N 42°58' E 006°54'1113.8
2017-Aug-15 22:42N 42°54' E 006°39'314.2
2017-Aug-15 22:31N 42°53' E 006°36'714.1
2017-Aug-15 22:01N 42°50' E 006°27'714.2
2017-Aug-15 21:30N 42°49' E 006°17'612.7
2017-Aug-15 21:00N 42°50' E 006°09'713.6
2017-Aug-15 20:30N 42°53' E 006°00'713.3
2017-Aug-15 20:01N 42°54' E 005°51'713.1
2017-Aug-15 19:31N 42°56' E 005°43'713.0
2017-Aug-15 19:01N 42°60' E 005°36'713.2
2017-Aug-15 18:31N 43°02' E 005°27'713.2
2017-Aug-15 18:01N 43°05' E 005°19'713.4
2017-Aug-15 17:30N 43°12' E 005°17'510.7
2017-Aug-15 17:01N 43°17' E 005°19'4 8.0
2017-Aug-15 16:31N 43°21' E 005°18'1 2.3
2017-Aug-15 15:59N 43°21' E 005°20'0 0.0
2017-Aug-15 15:29N 43°21' E 005°20'0 0.0
2017-Aug-15 14:56N 43°21' E 005°20'0 0.0
2017-Aug-15 14:20N 43°21' E 005°20'0 0.0
2017-Aug-15 13:59N 43°21' E 005°20'0 0.0
2017-Aug-15 13:29N 43°21' E 005°20'0 0.0
2017-Aug-15 12:59N 43°21' E 005°20'0 0.0
2017-Aug-15 12:29N 43°21' E 005°20'0 0.0
2017-Aug-15 11:59N 43°21' E 005°20'0 0.0
2017-Aug-15 11:26N 43°21' E 005°20'0 0.0
2017-Aug-15 10:59N 43°21' E 005°20'0 0.0
2017-Aug-15 10:29N 43°21' E 005°20'0 0.0
2017-Aug-15 09:59N 43°21' E 005°20'0 0.0
2017-Aug-15 09:29N 43°21' E 005°20'0 0.0
2017-Aug-15 08:56N 43°21' E 005°20'0 0.0
2017-Aug-15 08:29N 43°21' E 005°20'0 0.0
2017-Aug-15 07:59N 43°21' E 005°20'0 0.0
2017-Aug-15 07:29N 43°21' E 005°20'0 0.0
2017-Aug-15 06:59N 43°21' E 005°20'0 0.9
2017-Aug-15 06:30N 43°21' E 005°20'4 7.9
2017-Aug-15 06:00N 43°19' E 005°15'612.1
2017-Aug-15 05:30N 43°15' E 005°09'714.7
2017-Aug-15 05:00N 43°09' E 005°02'714.9
2017-Aug-15 04:30N 43°03' E 004°56'1019.0
2017-Aug-15 04:01N 42°56' E 004°48'1019.2
2017-Aug-15 03:30N 42°48' E 004°40'919.0
2017-Aug-15 03:00N 42°41' E 004°32'1318.7
2017-Aug-15 02:18N 42°30' E 004°21'618.8
2017-Aug-15 02:00N 42°26' E 004°17'918.9
2017-Aug-15 01:30N 42°18' E 004°09'1019.1
2017-Aug-15 01:00N 42°10' E 004°01'1019.5
2017-Aug-15 00:30N 42°03' E 003°53'1019.1
2017-Aug-15 00:00N 41°55' E 003°45'1121.1
2017-Aug-14 23:28N 41°46' E 003°36'1021.3
2017-Aug-14 22:59N 41°38' E 003°27'1021.5
2017-Aug-14 22:30N 41°30' E 003°19'1020.9
2017-Aug-14 22:00N 41°22' E 003°10'1020.9
2017-Aug-14 21:30N 41°14' E 003°02'1121.1
2017-Aug-14 21:00N 41°05' E 002°54'1121.2
2017-Aug-14 20:30N 40°57' E 002°45'1121.6
2017-Aug-14 20:00N 40°49' E 002°36'1121.5
2017-Aug-14 19:30N 40°40' E 002°27'1121.5
2017-Aug-14 19:00N 40°32' E 002°18'1121.8
2017-Aug-14 18:30N 40°24' E 002°09'1121.6
2017-Aug-14 18:00N 40°15' E 002°00'1121.6
2017-Aug-14 17:30N 40°07' E 001°51'1121.2
2017-Aug-14 17:00N 39°59' E 001°42'1121.4
2017-Aug-14 16:30N 39°50' E 001°34'1121.4
2017-Aug-14 16:00N 39°41' E 001°26'3621.2
2017-Aug-14 14:18N 39°13' E 000°57'1220.4
2017-Aug-14 13:44N 39°03' E 000°48'520.7
2017-Aug-14 13:30N 38°60' E 000°44'1220.6
2017-Aug-14 12:55N 38°50' E 000°35'2120.4
2017-Aug-14 11:54N 38°32' E 000°22'5120.2
2017-Aug-14 09:24N 37°50' W 000°14'820.3
2017-Aug-14 09:00N 37°44' W 000°21'1020.2
2017-Aug-14 08:30N 37°36' W 000°28'1020.1
2017-Aug-14 08:00N 37°28' W 000°37'1020.1
2017-Aug-14 07:30N 37°22' W 000°46'1019.8
2017-Aug-14 07:00N 37°15' W 000°55'6617.6
2017-Aug-14 03:16N 36°32' W 001°58'154 4.9
2017-Aug-12 19:44N 36°08' W 005°07'312.0
2017-Aug-12 19:30N 36°07' W 005°10'612.1
2017-Aug-12 19:00N 36°05' W 005°17'510.3
2017-Aug-12 18:30N 36°08' W 005°23'2 2.6
2017-Aug-12 17:55N 36°09' W 005°22'0 0.0
2017-Aug-12 17:28N 36°09' W 005°22'0 0.0
2017-Aug-12 16:55N 36°09' W 005°22'0 0.0
2017-Aug-12 16:25N 36°09' W 005°22'0 0.0
2017-Aug-12 15:55N 36°09' W 005°22'0 0.0
2017-Aug-12 15:25N 36°09' W 005°22'0 0.0
2017-Aug-12 14:55N 36°09' W 005°22'0 0.0
2017-Aug-12 14:28N 36°09' W 005°22'0 0.0
2017-Aug-12 13:55N 36°09' W 005°22'0 0.0
2017-Aug-12 13:25N 36°09' W 005°22'0 0.0
2017-Aug-12 12:58N 36°09' W 005°22'0 0.0
2017-Aug-12 12:25N 36°09' W 005°22'0 0.0
2017-Aug-12 11:58N 36°09' W 005°22'0 0.0
2017-Aug-12 11:13N 36°09' W 005°22'0 0.0
2017-Aug-12 10:55N 36°09' W 005°22'0 0.0
2017-Aug-12 10:25N 36°09' W 005°22'0 0.0
2017-Aug-12 09:58N 36°09' W 005°22'0 0.0
2017-Aug-12 09:13N 36°09' W 005°22'0 0.0
2017-Aug-12 08:49N 36°09' W 005°22'0 0.0
2017-Aug-12 08:25N 36°09' W 005°22'0 0.0
2017-Aug-12 07:43N 36°09' W 005°22'0 0.0
2017-Aug-12 07:16N 36°09' W 005°22'0 0.0
2017-Aug-12 05:33N 36°09' W 005°22'0 0.4
2017-Aug-12 05:30N 36°09' W 005°22'1 1.1
2017-Aug-12 05:00N 36°08' W 005°22'5 9.7
2017-Aug-12 04:30N 36°04' W 005°22'612.8
2017-Aug-12 04:01N 35°58' W 005°26'152 5.8
2017-Aug-11 01:48N 36°31' W 008°30'619.4
2017-Aug-11 01:30N 36°32' W 008°37'1019.3
2017-Aug-11 01:01N 36°32' W 008°49'1019.3
2017-Aug-11 00:30N 36°32' W 009°01'1019.5
2017-Aug-11 00:00N 36°34' W 009°13'918.8
2017-Aug-10 23:31N 36°40' W 009°23'1019.0
2017-Aug-10 23:00N 36°47' W 009°31'1019.1
2017-Aug-10 22:30N 36°56' W 009°35'919.0
2017-Aug-10 22:00N 37°05' W 009°35'918.9
2017-Aug-10 21:30N 37°15' W 009°35'1019.3
2017-Aug-10 21:01N 37°24' W 009°35'1019.8
2017-Aug-10 20:30N 37°34' W 009°34'1020.4
2017-Aug-10 20:00N 37°44' W 009°31'1020.6
2017-Aug-10 19:30N 37°54' W 009°30'918.3
2017-Aug-10 19:01N 38°04' W 009°30'1019.0
2017-Aug-10 18:30N 38°13' W 009°31'1019.2
2017-Aug-10 18:01N 38°22' W 009°27'917.9
2017-Aug-10 17:31N 38°31' W 009°25'917.8
2017-Aug-10 17:01N 38°39' W 009°20'713.3
2017-Aug-10 16:30N 38°41' W 009°12'4 6.7
2017-Aug-10 15:57N 38°43' W 009°07'0 0.0
2017-Aug-10 15:27N 38°43' W 009°07'0 0.0
2017-Aug-10 14:57N 38°43' W 009°07'0 0.0
2017-Aug-10 14:30N 38°43' W 009°07'0 0.0
2017-Aug-10 13:57N 38°43' W 009°07'0 0.0
2017-Aug-10 13:27N 38°43' W 009°07'0 0.0
2017-Aug-10 13:00N 38°43' W 009°07'0 0.0
2017-Aug-10 12:30N 38°43' W 009°07'0 0.0
2017-Aug-10 12:00N 38°43' W 009°07'0 0.0
2017-Aug-10 11:30N 38°43' W 009°07'0 0.0
2017-Aug-10 11:00N 38°43' W 009°07'0 0.0
2017-Aug-10 10:30N 38°43' W 009°07'0 0.0
2017-Aug-10 10:00N 38°43' W 009°07'0 0.0
2017-Aug-10 09:30N 38°43' W 009°07'0 0.0
2017-Aug-10 09:00N 38°43' W 009°07'0 0.0
2017-Aug-10 08:30N 38°43' W 009°07'0 0.0
2017-Aug-10 08:00N 38°43' W 009°07'0 0.0
2017-Aug-10 07:30N 38°43' W 009°07'0 0.0
2017-Aug-10 07:00N 38°43' W 009°07'0 0.3
2017-Aug-10 06:30N 38°43' W 009°07'5 9.2
2017-Aug-10 06:00N 38°41' W 009°13'612.5
2017-Aug-10 05:31N 38°39' W 009°20'713.0
2017-Aug-10 05:00N 38°36' W 009°28'713.2
2017-Aug-10 04:31N 38°36' W 009°36'611.6
2017-Aug-10 04:00N 38°40' W 009°42'713.7
2017-Aug-10 03:30N 38°47' W 009°43'713.3
2017-Aug-10 03:00N 38°53' W 009°44'713.2
2017-Aug-10 02:30N 38°60' W 009°44'713.2
2017-Aug-10 02:00N 39°07' W 009°45'713.3
2017-Aug-10 01:30N 39°13' W 009°45'713.5
2017-Aug-10 01:00N 39°20' W 009°45'814.0
2017-Aug-10 00:28N 39°28' W 009°44'613.3
2017-Aug-10 00:00N 39°33' W 009°42'13 0.3
2017-Aug-07 21:51N 39°46' W 009°40'820.3
2017-Aug-07 21:28N 39°38' W 009°42'920.3
2017-Aug-07 21:00N 39°29' W 009°44'1019.6
2017-Aug-07 20:30N 39°19' W 009°45'1019.3
2017-Aug-07 20:00N 39°10' W 009°44'1019.7
2017-Aug-07 19:30N 38°60' W 009°43'1019.9
2017-Aug-07 19:00N 38°50' W 009°43'918.8
2017-Aug-07 18:30N 38°41' W 009°41'918.6
2017-Aug-07 18:00N 38°39' W 009°30'4 8.2
2017-Aug-07 17:31N 38°41' W 009°25'4 7.7
2017-Aug-07 17:01N 38°37' W 009°26'1019.1
2017-Aug-07 16:31N 38°30' W 009°34'917.8
2017-Aug-07 16:01N 38°24' W 009°43'918.3
2017-Aug-07 15:30N 38°16' W 009°47'1020.4
2017-Aug-07 15:01N 38°06' W 009°44'1019.9
2017-Aug-07 14:31N 37°56' W 009°41'1019.8
2017-Aug-07 14:01N 37°47' W 009°38'1019.7
2017-Aug-07 13:30N 37°37' W 009°35'1019.6
2017-Aug-07 13:00N 37°28' W 009°31'1019.8
2017-Aug-07 12:30N 37°18' W 009°28'1020.1
2017-Aug-07 12:01N 37°08' W 009°25'1020.3
2017-Aug-07 11:31N 36°59' W 009°21'1020.1
2017-Aug-07 11:01N 36°50' W 009°14'1019.8
2017-Aug-07 10:31N 36°44' W 009°04'1020.3
2017-Aug-07 10:01N 36°40' W 008°53'918.4
2017-Aug-07 09:31N 36°37' W 008°42'918.1
2017-Aug-07 09:00N 36°34' W 008°31'918.1
2017-Aug-07 08:30N 36°32' W 008°20'918.5
2017-Aug-07 08:01N 36°29' W 008°09'918.6
2017-Aug-07 07:30N 36°26' W 007°58'1019.0
2017-Aug-07 07:00N 36°23' W 007°47'918.9
2017-Aug-07 06:30N 36°20' W 007°36'918.8
2017-Aug-07 06:00N 36°17' W 007°25'918.7
2017-Aug-07 05:31N 36°14' W 007°14'1518.6
2017-Aug-07 04:43N 36°10' W 006°57'6518.7
2017-Aug-07 01:15N 35°58' W 005°38'418.6
2017-Aug-07 01:00N 35°59' W 005°33'918.0
2017-Aug-07 00:31N 36°02' W 005°22'917.3
2017-Aug-07 00:01N 36°04' W 005°12'  
Track history (hours):
 
Tides and Currents Weather Stations Pressure Air Temp Water Temp Dewpoint Dewpoint Depression Visibility Wind Speed Wind Dir Waves Ship Positions

Legend Of The Seas

Operator: Royal Caribbean Cruises Ltd

Last reported at 2017-Aug-16 18:39 UTC. Time now 2017-Aug-16 19:18 UTC.
Position N 43°01' E 006°59'.

Type: Passenger vessel. MMSI: 311378000.

Date/timePositionNaut miles runAvg speedWind from/ knotsBaromVisibWave heightAir tempDewpointWater temp
2017-Aug-16 18:39N 43°01' E 006°59'321.1
2017-Aug-16 18:30N 43°03' E 007°02'1020.9
2017-Aug-16 18:00N 43°10' E 007°12'1121.1
2017-Aug-16 17:30N 43°18' E 007°22'1121.0
2017-Aug-16 17:00N 43°25' E 007°32'1121.2
2017-Aug-16 16:31N 43°34' E 007°41'1021.0
2017-Aug-16 16:00N 43°44' E 007°46'510.3
2017-Aug-16 15:30N 43°48' E 007°48'0 0.4
2017-Aug-16 15:00N 43°49' E 007°48'0 0.1
2017-Aug-16 14:30N 43°49' E 007°48'0 0.0
2017-Aug-16 14:00N 43°49' E 007°48'0 0.0
2017-Aug-16 13:15N 43°49' E 007°48'0 0.1
2017-Aug-16 12:57N 43°49' E 007°48'0 0.0
2017-Aug-16 12:27N 43°49' E 007°48'0 0.0
2017-Aug-16 12:00N 43°49' E 007°48'0 0.0
2017-Aug-16 11:30N 43°49' E 007°48'0 0.0
2017-Aug-16 11:00N 43°49' E 007°48'0 0.0
2017-Aug-16 10:15N 43°49' E 007°48'0 0.0
2017-Aug-16 08:42N 43°49' E 007°48'0 0.0
2017-Aug-16 08:27N 43°49' E 007°48'0 0.0
2017-Aug-16 07:33N 43°49' E 007°48'0 0.0
2017-Aug-16 07:21N 43°49' E 007°48'0 0.0
2017-Aug-16 06:57N 43°49' E 007°48'0 0.0
2017-Aug-16 06:27N 43°49' E 007°48'0 0.0
2017-Aug-16 06:00N 43°49' E 007°48'0 0.0
2017-Aug-16 05:27N 43°49' E 007°48'0 0.0
2017-Aug-16 04:45N 43°49' E 007°48'0 0.1
2017-Aug-16 04:30N 43°49' E 007°48'3 5.8
2017-Aug-16 04:00N 43°46' E 007°47'712.6
2017-Aug-16 03:28N 43°39' E 007°45'613.6
2017-Aug-16 03:00N 43°33' E 007°42'713.6
2017-Aug-16 02:30N 43°28' E 007°36'713.9
2017-Aug-16 02:00N 43°23' E 007°29'713.9
2017-Aug-16 01:31N 43°18' E 007°23'714.7
2017-Aug-16 01:01N 43°13' E 007°15'714.9
2017-Aug-16 00:31N 43°08' E 007°08'714.5
2017-Aug-16 00:01N 43°03' E 007°01'714.2
2017-Aug-15 23:31N 42°58' E 006°54'1113.8
2017-Aug-15 22:42N 42°54' E 006°39'314.2
2017-Aug-15 22:31N 42°53' E 006°36'714.1
2017-Aug-15 22:01N 42°50' E 006°27'714.2
2017-Aug-15 21:30N 42°49' E 006°17'612.7
2017-Aug-15 21:00N 42°50' E 006°09'713.6
2017-Aug-15 20:30N 42°53' E 006°00'713.3
2017-Aug-15 20:01N 42°54' E 005°51'713.1
2017-Aug-15 19:31N 42°56' E 005°43'713.0
2017-Aug-15 19:01N 42°60' E 005°36'713.2
2017-Aug-15 18:31N 43°02' E 005°27'713.2
2017-Aug-15 18:01N 43°05' E 005°19'713.4
2017-Aug-15 17:30N 43°12' E 005°17'510.7
2017-Aug-15 17:01N 43°17' E 005°19'4 8.0
2017-Aug-15 16:31N 43°21' E 005°18'1 2.3
2017-Aug-15 15:59N 43°21' E 005°20'0 0.0
2017-Aug-15 15:29N 43°21' E 005°20'0 0.0
2017-Aug-15 14:56N 43°21' E 005°20'0 0.0
2017-Aug-15 14:20N 43°21' E 005°20'0 0.0
2017-Aug-15 13:59N 43°21' E 005°20'0 0.0
2017-Aug-15 13:29N 43°21' E 005°20'0 0.0
2017-Aug-15 12:59N 43°21' E 005°20'0 0.0
2017-Aug-15 12:29N 43°21' E 005°20'0 0.0
2017-Aug-15 11:59N 43°21' E 005°20'0 0.0
2017-Aug-15 11:26N 43°21' E 005°20'0 0.0
2017-Aug-15 10:59N 43°21' E 005°20'0 0.0
2017-Aug-15 10:29N 43°21' E 005°20'0 0.0
2017-Aug-15 09:59N 43°21' E 005°20'0 0.0
2017-Aug-15 09:29N 43°21' E 005°20'0 0.0
2017-Aug-15 08:56N 43°21' E 005°20'0 0.0
2017-Aug-15 08:29N 43°21' E 005°20'0 0.0
2017-Aug-15 07:59N 43°21' E 005°20'0 0.0
2017-Aug-15 07:29N 43°21' E 005°20'0 0.0
2017-Aug-15 06:59N 43°21' E 005°20'0 0.9
2017-Aug-15 06:30N 43°21' E 005°20'4 7.9
2017-Aug-15 06:00N 43°19' E 005°15'612.1
2017-Aug-15 05:30N 43°15' E 005°09'714.7
2017-Aug-15 05:00N 43°09' E 005°02'714.9
2017-Aug-15 04:30N 43°03' E 004°56'1019.0
2017-Aug-15 04:01N 42°56' E 004°48'1019.2
2017-Aug-15 03:30N 42°48' E 004°40'919.0
2017-Aug-15 03:00N 42°41' E 004°32'1318.7
2017-Aug-15 02:18N 42°30' E 004°21'618.8
2017-Aug-15 02:00N 42°26' E 004°17'918.9
2017-Aug-15 01:30N 42°18' E 004°09'1019.1
2017-Aug-15 01:00N 42°10' E 004°01'1019.5
2017-Aug-15 00:30N 42°03' E 003°53'1019.1
2017-Aug-15 00:00N 41°55' E 003°45'1121.1
2017-Aug-14 23:28N 41°46' E 003°36'1021.3
2017-Aug-14 22:59N 41°38' E 003°27'1021.5
2017-Aug-14 22:30N 41°30' E 003°19'1020.9
2017-Aug-14 22:00N 41°22' E 003°10'1020.9
2017-Aug-14 21:30N 41°14' E 003°02'1121.1
2017-Aug-14 21:00N 41°05' E 002°54'1121.2
2017-Aug-14 20:30N 40°57' E 002°45'1121.6
2017-Aug-14 20:00N 40°49' E 002°36'1121.5
2017-Aug-14 19:30N 40°40' E 002°27'1121.5
2017-Aug-14 19:00N 40°32' E 002°18'1121.8
2017-Aug-14 18:30N 40°24' E 002°09'1121.6
2017-Aug-14 18:00N 40°15' E 002°00'1121.6
2017-Aug-14 17:30N 40°07' E 001°51'1121.2
2017-Aug-14 17:00N 39°59' E 001°42'1121.4
2017-Aug-14 16:30N 39°50' E 001°34'1121.4
2017-Aug-14 16:00N 39°41' E 001°26'3621.2
2017-Aug-14 14:18N 39°13' E 000°57'1220.4
2017-Aug-14 13:44N 39°03' E 000°48'520.7
2017-Aug-14 13:30N 38°60' E 000°44'1220.6
2017-Aug-14 12:55N 38°50' E 000°35'2120.4
2017-Aug-14 11:54N 38°32' E 000°22'5120.2
2017-Aug-14 09:24N 37°50' W 000°14'820.3
2017-Aug-14 09:00N 37°44' W 000°21'1020.2
2017-Aug-14 08:30N 37°36' W 000°28'1020.1
2017-Aug-14 08:00N 37°28' W 000°37'1020.1
2017-Aug-14 07:30N 37°22' W 000°46'1019.8
2017-Aug-14 07:00N 37°15' W 000°55'6617.6
2017-Aug-14 03:16N 36°32' W 001°58'154 4.9
2017-Aug-12 19:44N 36°08' W 005°07'312.0
2017-Aug-12 19:30N 36°07' W 005°10'612.1
2017-Aug-12 19:00N 36°05' W 005°17'510.3
2017-Aug-12 18:30N 36°08' W 005°23'2 2.6
2017-Aug-12 17:55N 36°09' W 005°22'0 0.0
2017-Aug-12 17:28N 36°09' W 005°22'0 0.0
2017-Aug-12 16:55N 36°09' W 005°22'0 0.0
2017-Aug-12 16:25N 36°09' W 005°22'0 0.0
2017-Aug-12 15:55N 36°09' W 005°22'0 0.0
2017-Aug-12 15:25N 36°09' W 005°22'0 0.0
2017-Aug-12 14:55N 36°09' W 005°22'0 0.0
2017-Aug-12 14:28N 36°09' W 005°22'0 0.0
2017-Aug-12 13:55N 36°09' W 005°22'0 0.0
2017-Aug-12 13:25N 36°09' W 005°22'0 0.0
2017-Aug-12 12:58N 36°09' W 005°22'0 0.0
2017-Aug-12 12:25N 36°09' W 005°22'0 0.0
2017-Aug-12 11:58N 36°09' W 005°22'0 0.0
2017-Aug-12 11:13N 36°09' W 005°22'0 0.0
2017-Aug-12 10:55N 36°09' W 005°22'0 0.0
2017-Aug-12 10:25N 36°09' W 005°22'0 0.0
2017-Aug-12 09:58N 36°09' W 005°22'0 0.0
2017-Aug-12 09:13N 36°09' W 005°22'0 0.0
2017-Aug-12 08:49N 36°09' W 005°22'0 0.0
2017-Aug-12 08:25N 36°09' W 005°22'0 0.0
2017-Aug-12 07:43N 36°09' W 005°22'0 0.0
2017-Aug-12 07:16N 36°09' W 005°22'0 0.0
2017-Aug-12 05:33N 36°09' W 005°22'0 0.4
2017-Aug-12 05:30N 36°09' W 005°22'1 1.1
2017-Aug-12 05:00N 36°08' W 005°22'5 9.7
2017-Aug-12 04:30N 36°04' W 005°22'612.8
2017-Aug-12 04:01N 35°58' W 005°26'152 5.8
2017-Aug-11 01:48N 36°31' W 008°30'619.4
2017-Aug-11 01:30N 36°32' W 008°37'1019.3
2017-Aug-11 01:01N 36°32' W 008°49'1019.3
2017-Aug-11 00:30N 36°32' W 009°01'1019.5
2017-Aug-11 00:00N 36°34' W 009°13'918.8
2017-Aug-10 23:31N 36°40' W 009°23'1019.0
2017-Aug-10 23:00N 36°47' W 009°31'1019.1
2017-Aug-10 22:30N 36°56' W 009°35'919.0
2017-Aug-10 22:00N 37°05' W 009°35'918.9
2017-Aug-10 21:30N 37°15' W 009°35'1019.3
2017-Aug-10 21:01N 37°24' W 009°35'1019.8
2017-Aug-10 20:30N 37°34' W 009°34'1020.4
2017-Aug-10 20:00N 37°44' W 009°31'1020.6
2017-Aug-10 19:30N 37°54' W 009°30'918.3
2017-Aug-10 19:01N 38°04' W 009°30'1019.0
2017-Aug-10 18:30N 38°13' W 009°31'1019.2
2017-Aug-10 18:01N 38°22' W 009°27'917.9
2017-Aug-10 17:31N 38°31' W 009°25'917.8
2017-Aug-10 17:01N 38°39' W 009°20'713.3
2017-Aug-10 16:30N 38°41' W 009°12'4 6.7
2017-Aug-10 15:57N 38°43' W 009°07'0 0.0
2017-Aug-10 15:27N 38°43' W 009°07'0 0.0
2017-Aug-10 14:57N 38°43' W 009°07'0 0.0
2017-Aug-10 14:30N 38°43' W 009°07'0 0.0
2017-Aug-10 13:57N 38°43' W 009°07'0 0.0
2017-Aug-10 13:27N 38°43' W 009°07'0 0.0
2017-Aug-10 13:00N 38°43' W 009°07'0 0.0
2017-Aug-10 12:30N 38°43' W 009°07'0 0.0
2017-Aug-10 12:00N 38°43' W 009°07'0 0.0
2017-Aug-10 11:30N 38°43' W 009°07'0 0.0
2017-Aug-10 11:00N 38°43' W 009°07'0 0.0
2017-Aug-10 10:30N 38°43' W 009°07'0 0.0
2017-Aug-10 10:00N 38°43' W 009°07'0 0.0
2017-Aug-10 09:30N 38°43' W 009°07'0 0.0
2017-Aug-10 09:00N 38°43' W 009°07'0 0.0
2017-Aug-10 08:30N 38°43' W 009°07'0 0.0
2017-Aug-10 08:00N 38°43' W 009°07'0 0.0
2017-Aug-10 07:30N 38°43' W 009°07'0 0.0
2017-Aug-10 07:00N 38°43' W 009°07'0 0.3
2017-Aug-10 06:30N 38°43' W 009°07'5 9.2
2017-Aug-10 06:00N 38°41' W 009°13'612.5
2017-Aug-10 05:31N 38°39' W 009°20'713.0
2017-Aug-10 05:00N 38°36' W 009°28'713.2
2017-Aug-10 04:31N 38°36' W 009°36'611.6
2017-Aug-10 04:00N 38°40' W 009°42'713.7
2017-Aug-10 03:30N 38°47' W 009°43'713.3
2017-Aug-10 03:00N 38°53' W 009°44'713.2
2017-Aug-10 02:30N 38°60' W 009°44'713.2
2017-Aug-10 02:00N 39°07' W 009°45'713.3
2017-Aug-10 01:30N 39°13' W 009°45'713.5
2017-Aug-10 01:00N 39°20' W 009°45'814.0
2017-Aug-10 00:28N 39°28' W 009°44'613.3
2017-Aug-10 00:00N 39°33' W 009°42'13 0.3
2017-Aug-07 21:51N 39°46' W 009°40'820.3
2017-Aug-07 21:28N 39°38' W 009°42'920.3
2017-Aug-07 21:00N 39°29' W 009°44'1019.6
2017-Aug-07 20:30N 39°19' W 009°45'1019.3
2017-Aug-07 20:00N 39°10' W 009°44'1019.7
2017-Aug-07 19:30N 38°60' W 009°43'1019.9
2017-Aug-07 19:00N 38°50' W 009°43'918.8
2017-Aug-07 18:30N 38°41' W 009°41'918.6
2017-Aug-07 18:00N 38°39' W 009°30'4 8.2
2017-Aug-07 17:31N 38°41' W 009°25'4 7.7
2017-Aug-07 17:01N 38°37' W 009°26'1019.1
2017-Aug-07 16:31N 38°30' W 009°34'917.8
2017-Aug-07 16:01N 38°24' W 009°43'918.3
2017-Aug-07 15:30N 38°16' W 009°47'1020.4
2017-Aug-07 15:01N 38°06' W 009°44'1019.9
2017-Aug-07 14:31N 37°56' W 009°41'1019.8
2017-Aug-07 14:01N 37°47' W 009°38'1019.7
2017-Aug-07 13:30N 37°37' W 009°35'1019.6
2017-Aug-07 13:00N 37°28' W 009°31'1019.8
2017-Aug-07 12:30N 37°18' W 009°28'1020.1
2017-Aug-07 12:01N 37°08' W 009°25'1020.3
2017-Aug-07 11:31N 36°59' W 009°21'1020.1
2017-Aug-07 11:01N 36°50' W 009°14'1019.8
2017-Aug-07 10:31N 36°44' W 009°04'1020.3
2017-Aug-07 10:01N 36°40' W 008°53'918.4
2017-Aug-07 09:31N 36°37' W 008°42'918.1
2017-Aug-07 09:00N 36°34' W 008°31'918.1
2017-Aug-07 08:30N 36°32' W 008°20'918.5
2017-Aug-07 08:01N 36°29' W 008°09'918.6
2017-Aug-07 07:30N 36°26' W 007°58'1019.0
2017-Aug-07 07:00N 36°23' W 007°47'918.9
2017-Aug-07 06:30N 36°20' W 007°36'918.8
2017-Aug-07 06:00N 36°17' W 007°25'918.7
2017-Aug-07 05:31N 36°14' W 007°14'1518.6
2017-Aug-07 04:43N 36°10' W 006°57'6518.7
2017-Aug-07 01:15N 35°58' W 005°38'418.6
2017-Aug-07 01:00N 35°59' W 005°33'918.0
2017-Aug-07 00:31N 36°02' W 005°22'917.3
2017-Aug-07 00:01N 36°04' W 005°12'  

Dump ship's entire track history